createdAt,value
2024-03-05T02:18:23.667Z,4.13
2024-03-05T02:20:50.863Z,4.14
2024-03-05T02:23:17.959Z,4.16
2024-03-05T02:25:46.188Z,4.16
2024-03-05T02:28:14.709Z,4.16
2024-03-05T02:30:41.568Z,4.15
2024-03-05T02:33:08.835Z,4.15
2024-03-05T02:35:35.944Z,4.14
2024-03-05T02:38:07.375Z,4.15
2024-03-05T02:40:37.394Z,4.16
2024-03-05T02:43:04.894Z,4.16
2024-03-05T02:45:32.362Z,4.16
2024-03-05T02:48:07.727Z,4.17
2024-03-05T02:50:35.742Z,4.17
2024-03-05T02:53:04.369Z,4.16
2024-03-05T02:55:32.150Z,4.16
2024-03-05T02:58:00.075Z,4.15
2024-03-05T03:00:27.322Z,4.16
2024-03-05T03:02:54.950Z,4.17
2024-03-05T03:05:25.304Z,4.20
2024-03-05T03:07:53.553Z,4.21
2024-03-05T03:10:21.012Z,4.21
2024-03-05T03:12:49.481Z,4.21
2024-03-05T03:15:18.958Z,4.21
2024-03-05T03:17:46.363Z,4.22
2024-03-05T03:20:17.234Z,4.21
2024-03-05T03:22:45.352Z,4.20
2024-03-05T03:25:13.097Z,4.21
2024-03-05T03:27:44.299Z,4.21
2024-03-05T03:30:19.730Z,4.19
2024-03-05T03:32:52.390Z,4.19
2024-03-05T03:35:19.917Z,4.18
2024-03-05T03:37:48.008Z,4.17
2024-03-05T03:40:24.783Z,4.15
2024-03-05T03:42:52.864Z,4.14
2024-03-05T03:45:20.694Z,4.15
2024-03-05T03:47:48.658Z,4.14
2024-03-05T03:50:16.356Z,4.15
2024-03-05T03:52:45.598Z,4.15
2024-03-05T03:55:12.847Z,4.15
2024-03-05T03:57:40.967Z,4.14
2024-03-05T04:00:19.016Z,4.14
2024-03-05T04:02:48.128Z,4.14
2024-03-05T04:05:15.644Z,4.15
2024-03-05T04:07:44.222Z,4.16
2024-03-05T04:10:12.331Z,4.16
2024-03-05T04:12:42.508Z,4.16
2024-03-05T04:15:10.699Z,4.17
2024-03-05T04:17:43.986Z,4.19
2024-03-05T04:20:12.270Z,4.20
2024-03-05T04:22:41.043Z,4.21
2024-03-05T04:25:10.980Z,4.21
2024-03-05T04:27:48.744Z,4.24
2024-03-05T04:30:16.951Z,4.25
2024-03-05T04:32:59.216Z,4.29
2024-03-05T04:35:29.684Z,4.31
2024-03-05T04:37:58.392Z,4.34
2024-03-05T04:40:26.138Z,4.35
2024-03-05T04:42:59.053Z,4.36
2024-03-05T04:45:26.949Z,4.37
2024-03-05T04:47:58.154Z,4.36
2024-03-05T04:50:25.547Z,4.35
2024-03-05T04:52:59.046Z,4.34
2024-03-05T04:55:26.693Z,4.33
2024-03-05T04:58:03.469Z,4.33
2024-03-05T05:00:34.992Z,4.32
2024-03-05T05:03:05.602Z,4.33
2024-03-05T05:05:41.251Z,4.33
2024-03-05T05:08:09.517Z,4.34
2024-03-05T05:10:37.822Z,4.36
2024-03-05T05:13:05.288Z,4.37
2024-03-05T05:30:40.112Z,4.49
2024-03-05T05:33:09.251Z,4.54
2024-03-05T05:35:50.612Z,4.57
2024-03-05T05:38:19.251Z,4.58
2024-03-05T05:40:53.027Z,4.60
2024-03-05T05:43:21.508Z,4.61
2024-03-05T05:45:50.165Z,4.62
2024-03-05T05:48:29.285Z,4.62
2024-03-05T05:51:13.921Z,4.64
2024-03-05T05:54:27.252Z,4.64
2024-03-05T05:57:07.794Z,4.65
2024-03-05T06:02:55.500Z,4.67
2024-03-05T06:05:42.307Z,4.68
2024-03-05T06:17:39.914Z,4.68
2024-03-05T06:27:18.493Z,4.68
2024-03-05T06:33:15.326Z,4.68
2024-03-05T06:36:19.005Z,4.69
2024-03-05T06:39:28.724Z,4.70
2024-03-05T06:45:34.288Z,4.70
2024-03-05T06:51:34.108Z,4.72
2024-03-05T06:54:29.258Z,4.74
2024-03-05T06:57:19.063Z,4.76
2024-03-05T07:00:14.444Z,4.79
2024-03-05T07:08:56.768Z,4.84
2024-03-05T07:14:42.412Z,4.87
2024-03-05T07:20:32.140Z,4.89
2024-03-05T07:34:46.286Z,4.94
2024-03-05T07:37:15.397Z,4.98
2024-03-05T07:43:37.166Z,5.03
2024-03-05T07:46:08.018Z,5.06
2024-03-05T07:48:48.336Z,5.11
2024-03-05T07:51:21.260Z,5.15
2024-03-05T07:53:55.061Z,5.18
2024-03-05T07:56:25.927Z,5.19
2024-03-05T07:59:02.133Z,5.20
2024-03-05T08:01:49.000Z,5.21
2024-03-05T08:04:40.980Z,5.22
2024-03-05T08:09:55.136Z,5.22
2024-03-05T08:26:24.558Z,5.33
2024-03-05T08:29:01.638Z,5.36
2024-03-05T08:31:46.625Z,5.39
2024-03-05T08:34:14.759Z,5.42
2024-03-05T08:36:44.066Z,5.44
2024-03-05T08:39:22.201Z,5.45
2024-03-05T08:41:53.854Z,5.49
2024-03-05T08:44:21.752Z,5.53
2024-03-05T08:46:55.621Z,5.56
2024-03-05T08:49:27.550Z,5.59
2024-03-05T08:52:10.420Z,5.61
2024-03-05T08:57:49.563Z,5.59
2024-03-05T09:00:49.304Z,5.60
2024-03-05T09:03:16.955Z,5.62
2024-03-05T09:05:47.679Z,5.64
2024-03-05T09:08:15.482Z,5.67
2024-03-05T09:10:46.047Z,5.67
2024-03-05T09:13:17.725Z,5.68
2024-03-05T09:15:47.312Z,5.68
2024-03-05T09:18:23.747Z,5.69
2024-03-05T09:20:57.425Z,5.71
2024-03-05T09:23:24.134Z,5.73
2024-03-05T09:25:54.364Z,5.76
2024-03-05T09:28:22.429Z,5.78
2024-03-05T09:30:49.468Z,5.82
2024-03-05T09:33:18.888Z,5.85
2024-03-05T09:35:53.879Z,5.86
2024-03-05T09:38:27.229Z,5.89
2024-03-05T09:40:58.789Z,5.91
2024-03-05T09:43:27.424Z,5.94
2024-03-05T09:46:06.314Z,5.98
2024-03-05T09:48:36.546Z,6.01
2024-03-05T09:51:04.246Z,6.02
2024-03-05T09:53:36.050Z,6.02
2024-03-05T09:56:25.952Z,6.04
2024-03-05T09:58:53.368Z,6.09
2024-03-05T10:01:23.128Z,6.13
2024-03-05T10:03:50.320Z,6.15
2024-03-05T10:06:19.984Z,6.17
2024-03-05T10:08:47.680Z,6.19
2024-03-05T10:11:17.023Z,6.20
2024-03-05T10:13:44.663Z,6.20
2024-03-05T10:16:24.089Z,6.21
2024-03-05T10:18:54.091Z,6.22
2024-03-05T10:21:26.517Z,6.21
2024-03-05T10:24:06.444Z,6.20
2024-03-05T10:26:40.250Z,6.20
2024-03-05T10:29:12.786Z,6.18
2024-03-05T10:31:44.699Z,6.17
2024-03-05T10:34:13.718Z,6.16
2024-03-05T10:36:44.219Z,6.16
2024-03-05T10:39:16.315Z,6.15
2024-03-05T10:41:51.095Z,6.14
2024-03-05T10:44:20.921Z,6.13
2024-03-05T10:46:52.707Z,6.13
2024-03-05T10:49:21.106Z,6.14
2024-03-05T10:51:58.267Z,6.16
2024-03-05T10:54:27.443Z,6.17
2024-03-05T10:56:58.358Z,6.18
2024-03-05T10:59:40.616Z,6.19
2024-03-05T11:02:18.853Z,6.21
2024-03-05T11:04:47.777Z,6.21
2024-03-05T11:07:18.239Z,6.22
2024-03-05T11:09:49.655Z,6.23
2024-03-05T11:12:19.812Z,6.23
2024-03-05T11:14:51.058Z,6.25
2024-03-05T11:17:19.393Z,6.26
2024-03-05T11:19:49.513Z,6.27
2024-03-05T11:22:31.775Z,6.28
2024-03-05T11:25:14.557Z,6.29
2024-03-05T11:28:04.245Z,6.30
2024-03-05T11:30:32.622Z,6.30
2024-03-05T11:33:22.631Z,6.31
2024-03-05T11:35:50.862Z,6.32
2024-03-05T11:38:23.314Z,6.32
2024-03-05T11:40:50.975Z,6.33
2024-03-05T11:43:37.028Z,6.33
2024-03-05T11:46:04.102Z,6.33
2024-03-05T11:48:31.233Z,6.33
2024-03-05T11:51:03.846Z,6.33
2024-03-05T11:53:34.799Z,6.34
2024-03-05T11:56:10.123Z,6.35
2024-03-05T11:58:44.519Z,6.36
2024-03-05T12:01:17.729Z,6.39
2024-03-05T12:03:53.002Z,6.40
2024-03-05T12:06:28.598Z,6.41
2024-03-05T12:09:01.090Z,6.40
2024-03-05T12:11:28.253Z,6.39
2024-03-05T12:14:08.148Z,6.40
2024-03-05T12:16:35.355Z,6.41
2024-03-05T12:19:08.122Z,6.43
2024-03-05T12:21:37.867Z,6.43
2024-03-05T12:24:06.329Z,6.44
2024-03-05T12:26:35.357Z,6.43
2024-03-05T12:32:20.906Z,6.42
2024-03-05T12:34:50.851Z,6.43
2024-03-05T12:37:20.796Z,6.44
2024-03-05T12:39:59.329Z,6.47
2024-03-05T12:42:26.236Z,6.52
2024-03-05T12:45:13.605Z,6.54
2024-03-05T12:47:40.609Z,6.58
2024-03-05T12:50:08.886Z,6.59
2024-03-05T12:52:40.996Z,6.62
2024-03-05T12:55:11.974Z,6.63
2024-03-05T12:57:40.974Z,6.63
2024-03-05T13:00:12.412Z,6.62
2024-03-05T13:02:40.107Z,6.59
2024-03-05T13:05:11.295Z,6.58
2024-03-05T13:07:40.730Z,6.57
2024-03-05T13:10:12.361Z,6.56
2024-03-05T13:12:40.818Z,6.55
2024-03-05T13:15:09.861Z,6.52
2024-03-05T13:17:39.412Z,6.51
2024-03-05T13:20:21.447Z,6.49
2024-03-05T13:25:52.837Z,6.48
2024-03-05T13:28:32.988Z,6.48
2024-03-05T13:31:01.083Z,6.47
2024-03-05T13:36:10.633Z,6.51
2024-03-05T13:38:45.026Z,6.53
2024-03-05T13:41:16.785Z,6.54
2024-03-05T13:43:47.472Z,6.56
2024-03-05T13:46:15.101Z,6.57
2024-03-05T13:52:00.013Z,6.63
2024-03-05T13:54:28.705Z,6.68
2024-03-05T13:56:56.053Z,6.70
2024-03-05T13:59:30.404Z,6.72
2024-03-05T14:02:10.562Z,6.72
2024-03-05T14:04:45.650Z,6.74
2024-03-05T14:07:29.643Z,6.74
2024-03-05T14:09:57.778Z,6.76
2024-03-05T14:12:25.398Z,6.77
2024-03-05T14:14:55.439Z,6.76
2024-03-05T14:17:22.532Z,6.76
2024-03-05T14:19:49.947Z,6.76
2024-03-05T14:22:18.643Z,6.78
2024-03-05T14:25:19.096Z,6.81
2024-03-05T14:27:49.155Z,6.84
2024-03-05T14:30:23.733Z,6.86
2024-03-05T14:33:06.019Z,6.88
2024-03-05T14:35:34.933Z,6.90
2024-03-05T14:41:06.519Z,6.91
2024-03-05T14:43:34.593Z,6.92
2024-03-05T14:46:13.057Z,6.93
2024-03-05T14:48:48.863Z,6.93
2024-03-05T14:54:29.268Z,6.94
2024-03-05T14:57:06.482Z,6.93
2024-03-05T14:59:36.702Z,6.93
2024-03-05T15:02:07.501Z,6.92
2024-03-05T15:04:34.616Z,6.93
2024-03-05T15:07:04.377Z,6.93
2024-03-05T15:09:37.768Z,6.93
2024-03-05T15:12:05.371Z,6.94
2024-03-05T15:14:46.159Z,6.94
2024-03-05T15:17:15.590Z,6.93
2024-03-05T15:20:14.598Z,6.93
2024-03-05T15:22:49.001Z,6.93
2024-03-05T15:25:50.924Z,6.93
2024-03-05T15:28:18.791Z,6.93
2024-03-05T15:30:45.806Z,6.92
2024-03-05T15:35:42.118Z,6.93
2024-03-05T15:38:32.366Z,6.94
2024-03-05T15:41:11.877Z,6.94
2024-03-05T15:43:38.990Z,6.94
2024-03-05T15:46:06.079Z,6.93
2024-03-05T15:48:34.353Z,6.93
2024-03-05T15:51:02.080Z,6.93
2024-03-05T15:59:50.267Z,6.95
2024-03-05T16:02:18.424Z,7.01
2024-03-05T16:05:05.112Z,7.02
2024-03-05T16:07:33.610Z,7.00
2024-03-05T16:21:51.424Z,6.89
2024-03-05T16:24:24.019Z,6.88
2024-03-05T16:32:19.109Z,6.82
2024-03-05T16:34:46.911Z,6.81
2024-03-05T16:37:17.086Z,6.81
2024-03-05T16:39:53.930Z,6.80
2024-03-05T16:45:01.411Z,6.79
2024-03-05T16:48:01.195Z,6.78
2024-03-05T16:50:29.255Z,6.77
2024-03-05T16:53:30.271Z,6.76
2024-03-05T16:55:57.357Z,6.75
2024-03-05T16:59:48.906Z,6.74
2024-03-05T17:02:18.288Z,6.73
2024-03-05T17:06:50.550Z,6.71
2024-03-05T17:09:33.490Z,6.68
2024-03-05T17:12:01.658Z,6.67
2024-03-05T17:14:28.400Z,6.67
2024-03-05T17:17:25.685Z,6.66
2024-03-05T17:20:11.097Z,6.65
2024-03-05T17:22:38.078Z,6.64
2024-03-05T17:25:38.301Z,6.64
2024-03-05T17:28:14.419Z,6.62
2024-03-05T17:33:35.861Z,6.59
2024-03-05T17:36:09.424Z,6.58
2024-03-05T17:38:42.700Z,6.57
2024-03-05T17:41:26.919Z,6.55
2024-03-05T17:47:12.287Z,6.51
2024-03-05T17:49:39.782Z,6.50
2024-03-05T17:52:34.104Z,6.50
2024-03-05T17:55:41.248Z,6.49
2024-03-05T17:59:00.002Z,6.48
2024-03-05T18:01:27.784Z,6.48
2024-03-05T18:21:57.766Z,6.35
2024-03-05T18:24:29.271Z,6.37
2024-03-05T18:27:08.268Z,6.39
2024-03-05T19:14:13.779Z,6.45
2024-03-05T20:10:49.418Z,6.40
2024-03-05T20:13:18.319Z,6.38
2024-03-05T20:15:48.485Z,6.35
2024-03-05T20:18:15.776Z,6.33
2024-03-05T20:20:43.640Z,6.30
2024-03-05T20:23:10.778Z,6.27
2024-03-05T20:31:46.009Z,6.20
2024-03-05T20:34:26.269Z,6.19
2024-03-05T20:36:59.369Z,6.18
2024-03-05T20:39:26.034Z,6.17
2024-03-05T20:41:52.792Z,6.16
2024-03-05T20:44:29.761Z,6.15
2024-03-05T20:47:13.293Z,6.14
2024-03-05T20:49:41.625Z,6.14
2024-03-05T20:52:08.714Z,6.13
2024-03-05T20:54:40.696Z,6.14
2024-03-05T20:57:07.818Z,6.12
2024-03-05T20:59:37.881Z,6.12
2024-03-05T21:02:10.735Z,6.12
2024-03-05T21:04:50.395Z,6.12
2024-03-05T21:07:17.429Z,6.11
2024-03-05T21:30:56.863Z,6.09
2024-03-05T21:33:25.059Z,6.12
2024-03-05T21:35:52.296Z,6.13
2024-03-05T21:38:19.965Z,6.14
2024-03-05T21:40:48.493Z,6.15
2024-03-05T21:43:16.779Z,6.15
2024-03-05T21:46:30.792Z,6.16
2024-03-05T21:49:06.856Z,6.16
2024-03-05T21:51:35.244Z,6.16
2024-03-05T21:54:02.550Z,6.16
2024-03-05T21:56:30.778Z,6.17
2024-03-05T21:58:59.394Z,6.17
2024-03-05T22:01:26.740Z,6.18
2024-03-05T22:03:53.920Z,6.19
2024-03-05T22:06:25.023Z,6.20
2024-03-05T22:20:59.350Z,6.18
2024-03-05T22:24:33.045Z,6.19
2024-03-05T22:26:59.679Z,6.18
2024-03-05T22:29:48.049Z,6.18
2024-03-05T22:35:59.844Z,6.19
2024-03-05T22:38:22.469Z,6.21
2024-03-05T22:40:49.548Z,6.22
2024-03-05T22:48:18.666Z,6.26
2024-03-05T22:50:55.446Z,6.27
2024-03-05T22:53:23.403Z,6.28
2024-03-05T22:55:50.282Z,6.28
2024-03-05T22:59:38.267Z,6.28
2024-03-05T23:02:22.119Z,6.30
2024-03-05T23:05:08.162Z,6.30
2024-03-05T23:07:46.846Z,6.31
2024-03-05T23:10:36.936Z,6.31
2024-03-05T23:20:38.832Z,6.34
2024-03-05T23:23:30.435Z,6.34
2024-03-05T23:28:52.162Z,6.37
2024-03-05T23:31:30.073Z,6.39
2024-03-05T23:34:52.679Z,6.40
2024-03-05T23:37:19.658Z,6.41
2024-03-05T23:44:30.879Z,6.42
2024-03-05T23:56:29.932Z,6.45
